Guantanamo Bay NAS, Cuba
Current Conditions -  °F | °C
As of 10:56 PM on Monday 26 Jan 2015 (Local Time) from MUGM Reporting Station
Few Clouds Few Clouds  
Wind Chill: 78°   Ceiling: Unl
Heat Index: 80°   Visibility: 6mi
Dew Point: 70°   Wind: 3mph
Humidity: 76%   Direction: 300°WNW
Pressure: 29.99"   Gusts: NA
Location:  19.91°N, 75.2°W
Report Text: MUGM 270256Z 30003KT 9999 FEW120 26/21 A2999 RMK SLP156 T02560211 51016
Loading
Personal Weather Stations






























Interactive Weather Map New forecast layout! Learn more

10-Day Weather Forecast

Advertisements
Track Severe Weather on mobile